Time,TemperatureF,DewpointF,PressureIn,WindDirection,WindDirectionDegrees,WindSpeedMPH,WindSpeedGustMPH,Humidity,HourlyPrecipIn,Conditions,Clouds,dailyrainin,SoftwareType,DateUTC
2013-05-07 00:00:00,47.2,44.1,30.14,SSW,203,0.0,0.0,89,0.00,,,0.00,Wunderground v.1.15,2013-05-07 04:00:00,
2013-05-07 00:05:00,47.0,43.9,30.14,SSW,203,0.0,0.0,89,0.00,,,0.00,Wunderground v.1.15,2013-05-07 04:05:00,
2013-05-07 00:10:00,46.9,44.1,30.14,SSW,204,0.0,0.0,90,0.00,,,0.00,Wunderground v.1.15,2013-05-07 04:10:00,
2013-05-07 00:15:00,46.6,43.8,30.14,SSW,204,0.0,0.0,90,0.00,,,0.00,Wunderground v.1.15,2013-05-07 04:15:00,
2013-05-07 00:25:00,46.1,43.3,30.14,SSW,204,0.0,0.0,90,0.00,,,0.00,Wunderground v.1.15,2013-05-07 04:25:00,
2013-05-07 00:30:00,45.9,43.4,30.14,SSW,204,0.0,0.0,91,0.00,,,0.00,Wunderground v.1.15,2013-05-07 04:30:00,
2013-05-07 00:35:00,45.7,43.2,30.14,SSW,203,0.0,0.0,91,0.00,,,0.00,Wunderground v.1.15,2013-05-07 04:35:00,
2013-05-07 00:40:00,45.5,43.3,30.14,SSW,204,0.0,0.0,92,0.00,,,0.00,Wunderground v.1.15,2013-05-07 04:40:00,
2013-05-07 00:45:00,45.4,43.2,30.14,SSW,203,0.0,0.0,92,0.00,,,0.00,Wunderground v.1.15,2013-05-07 04:45:00,
2013-05-07 00:50:00,45.2,43.0,30.14,SSW,204,0.0,0.0,92,0.00,,,0.00,Wunderground v.1.15,2013-05-07 04:50:00,
2013-05-07 01:00:00,45.0,42.8,30.14,SSW,204,0.0,0.0,92,0.00,,,0.00,Wunderground v.1.15,2013-05-07 05:00:00,
2013-05-07 01:05:00,44.9,43.0,30.14,SSW,204,0.0,0.0,93,0.00,,,0.00,Wunderground v.1.15,2013-05-07 05:05:00,
2013-05-07 01:15:00,44.6,42.7,30.14,SSW,204,0.0,0.0,93,0.00,,,0.00,Wunderground v.1.15,2013-05-07 05:15:00,
2013-05-07 01:20:00,44.4,42.5,30.14,SSW,203,0.0,0.0,93,0.00,,,0.00,Wunderground v.1.15,2013-05-07 05:20:00,
2013-05-07 01:25:00,44.2,42.3,30.14,SSW,204,0.0,0.0,93,0.00,,,0.00,Wunderground v.1.15,2013-05-07 05:25:00,
2013-05-07 01:35:00,44.0,42.1,30.14,SSW,204,0.0,0.0,93,0.00,,,0.00,Wunderground v.1.15,2013-05-07 05:35:00,
2013-05-07 01:40:00,43.8,42.2,30.14,SSW,204,0.0,0.0,94,0.00,,,0.00,Wunderground v.1.15,2013-05-07 05:40:00,
2013-05-07 01:45:00,43.8,42.2,30.14,SSW,203,0.0,0.0,94,0.00,,,0.00,Wunderground v.1.15,2013-05-07 05:45:00,
2013-05-07 01:50:00,43.7,42.1,30.14,SSW,204,0.0,0.0,94,0.00,,,0.00,Wunderground v.1.15,2013-05-07 05:50:00,
2013-05-07 02:00:00,43.4,41.8,30.13,SSW,204,0.0,0.0,94,0.00,,,0.00,Wunderground v.1.15,2013-05-07 06:00:00,
2013-05-07 02:05:00,43.2,41.6,30.14,SSW,204,0.0,0.0,94,0.00,,,0.00,Wunderground v.1.15,2013-05-07 06:05:00,
2013-05-07 02:15:00,43.2,41.9,30.13,SSW,204,0.0,0.0,95,0.00,,,0.00,Wunderground v.1.15,2013-05-07 06:15:00,
2013-05-07 02:20:00,43.2,41.6,30.13,SSW,204,0.0,0.0,94,0.00,,,0.00,Wunderground v.1.15,2013-05-07 06:20:00,
2013-05-07 02:25:00,43.0,41.4,30.13,SSW,204,0.0,0.0,94,0.00,,,0.00,Wunderground v.1.15,2013-05-07 06:25:00,
2013-05-07 02:35:00,42.8,41.2,30.13,SSW,203,0.0,0.0,94,0.00,,,0.00,Wunderground v.1.15,2013-05-07 06:35:00,
2013-05-07 02:40:00,42.7,41.1,30.13,SSW,204,0.0,0.0,94,0.00,,,0.00,Wunderground v.1.15,2013-05-07 06:40:00,
2013-05-07 02:45:00,42.6,41.3,30.13,SSW,204,0.0,0.0,95,0.00,,,0.00,Wunderground v.1.15,2013-05-07 06:45:00,
2013-05-07 02:50:00,42.5,41.2,30.14,SSW,204,0.0,0.0,95,0.00,,,0.00,Wunderground v.1.15,2013-05-07 06:50:00,
2013-05-07 02:55:00,42.4,41.1,30.14,SSW,204,0.0,0.0,95,0.00,,,0.00,Wunderground v.1.15,2013-05-07 06:55:00,
2013-05-07 03:00:00,42.3,41.0,30.14,SSW,203,0.0,0.0,95,0.00,,,0.00,Wunderground v.1.15,2013-05-07 07:00:00,
2013-05-07 03:05:00,42.2,40.9,30.13,SSW,203,0.0,0.0,95,0.00,,,0.00,Wunderground v.1.15,2013-05-07 07:05:00,
2013-05-07 03:15:00,42.0,40.7,30.13,SSW,204,0.0,0.0,95,0.00,,,0.00,Wunderground v.1.15,2013-05-07 07:15:00,
2013-05-07 03:20:00,41.8,40.5,30.13,SSW,204,0.0,0.0,95,0.00,,,0.00,Wunderground v.1.15,2013-05-07 07:20:00,
2013-05-07 03:25:00,41.8,40.5,30.13,SSW,204,0.0,0.0,95,0.00,,,0.00,Wunderground v.1.15,2013-05-07 07:25:00,
2013-05-07 03:30:00,41.9,40.6,30.13,SSW,204,0.0,0.0,95,0.00,,,0.00,Wunderground v.1.15,2013-05-07 07:30:00,
2013-05-07 03:35:00,41.8,40.5,30.13,SSW,203,0.0,0.0,95,0.00,,,0.00,Wunderground v.1.15,2013-05-07 07:35:00,
2013-05-07 03:40:00,41.7,40.4,30.13,SSW,204,0.0,0.0,95,0.00,,,0.00,Wunderground v.1.15,2013-05-07 07:40:00,
2013-05-07 03:45:00,41.7,40.6,30.13,SSW,203,0.0,0.0,96,0.00,,,0.00,Wunderground v.1.15,2013-05-07 07:45:00,
2013-05-07 03:55:00,41.8,40.7,30.13,SSW,204,0.0,0.0,96,0.00,,,0.00,Wunderground v.1.15,2013-05-07 07:55:00,
2013-05-07 04:00:00,41.9,40.8,30.14,SSW,203,0.0,0.0,96,0.00,,,0.00,Wunderground v.1.15,2013-05-07 08:00:00,
2013-05-07 04:05:00,41.8,40.7,30.14,SSW,203,0.0,0.0,96,0.00,,,0.00,Wunderground v.1.15,2013-05-07 08:05:00,
2013-05-07 04:15:00,41.6,40.5,30.14,SSW,203,0.0,0.0,96,0.00,,,0.00,Wunderground v.1.15,2013-05-07 08:15:00,
2013-05-07 04:20:00,41.6,40.5,30.14,SSW,204,0.0,0.0,96,0.00,,,0.00,Wunderground v.1.15,2013-05-07 08:20:00,
2013-05-07 04:25:00,41.4,40.3,30.13,SSW,204,0.0,0.0,96,0.00,,,0.00,Wunderground v.1.15,2013-05-07 08:25:00,
2013-05-07 04:30:00,41.4,40.3,30.14,SSW,204,0.0,0.0,96,0.00,,,0.00,Wunderground v.1.15,2013-05-07 08:30:00,
2013-05-07 04:35:00,41.3,40.2,30.13,SSW,203,0.0,0.0,96,0.00,,,0.00,Wunderground v.1.15,2013-05-07 08:35:00,
2013-05-07 04:40:00,41.2,40.1,30.13,SSW,204,0.0,0.0,96,0.00,,,0.00,Wunderground v.1.15,2013-05-07 08:40:00,
2013-05-07 04:50:00,41.1,40.0,30.13,SSW,204,0.0,0.0,96,0.00,,,0.00,Wunderground v.1.15,2013-05-07 08:50:00,
2013-05-07 04:55:00,41.1,40.0,30.13,SSW,203,0.0,0.0,96,0.00,,,0.00,Wunderground v.1.15,2013-05-07 08:55:00,
2013-05-07 05:00:00,41.1,40.0,30.13,SSW,204,0.0,0.0,96,0.00,,,0.00,Wunderground v.1.15,2013-05-07 09:00:00,
2013-05-07 05:05:00,41.1,40.0,30.14,SSW,204,0.0,0.0,96,0.00,,,0.00,Wunderground v.1.15,2013-05-07 09:05:00,
2013-05-07 05:15:00,41.1,40.0,30.13,SSW,204,0.0,0.0,96,0.00,,,0.00,Wunderground v.1.15,2013-05-07 09:15:00,
2013-05-07 05:25:00,42.0,41.2,30.14,SSW,204,0.0,0.0,97,0.00,,,0.00,Wunderground v.1.15,2013-05-07 09:25:00,
2013-05-07 05:30:00,42.3,41.5,30.14,SSW,204,0.0,0.0,97,0.00,,,0.00,Wunderground v.1.15,2013-05-07 09:30:00,
2013-05-07 05:35:00,42.4,41.6,30.14,SSW,204,0.0,0.0,97,0.00,,,0.00,Wunderground v.1.15,2013-05-07 09:35:00,
2013-05-07 05:40:00,42.3,41.5,30.14,SSW,203,0.0,0.0,97,0.00,,,0.00,Wunderground v.1.15,2013-05-07 09:40:00,
2013-05-07 05:45:00,42.2,41.1,30.14,SSW,204,0.0,0.0,96,0.00,,,0.00,Wunderground v.1.15,2013-05-07 09:45:00,
2013-05-07 05:50:00,42.1,41.0,30.14,SSW,204,0.0,0.0,96,0.00,,,0.00,Wunderground v.1.15,2013-05-07 09:50:00,
2013-05-07 05:55:00,42.1,41.3,30.15,SSW,203,0.0,0.0,97,0.00,,,0.00,Wunderground v.1.15,2013-05-07 09:55:00,
2013-05-07 06:05:00,42.1,41.3,30.15,SSW,203,0.0,0.0,97,0.00,,,0.00,Wunderground v.1.15,2013-05-07 10:05:00,
2013-05-07 06:15:00,41.9,41.1,30.15,SSW,204,0.0,0.0,97,0.00,,,0.00,Wunderground v.1.15,2013-05-07 10:15:00,
2013-05-07 06:20:00,41.9,41.1,30.15,SSW,204,0.0,0.0,97,0.00,,,0.00,Wunderground v.1.15,2013-05-07 10:20:00,
2013-05-07 06:25:00,42.1,41.3,30.15,SSW,203,0.0,0.0,97,0.00,,,0.00,Wunderground v.1.15,2013-05-07 10:25:00,
2013-05-07 06:30:00,42.4,41.6,30.15,SSW,204,0.0,0.0,97,0.00,,,0.00,Wunderground v.1.15,2013-05-07 10:30:00,
2013-05-07 06:40:00,43.2,42.4,30.15,SSW,204,0.0,0.0,97,0.00,,,0.00,Wunderground v.1.15,2013-05-07 10:40:00,
2013-05-07 06:45:00,43.4,42.6,30.15,SSW,203,0.0,0.0,97,0.00,,,0.00,Wunderground v.1.15,2013-05-07 10:45:00,
2013-05-07 06:50:00,43.6,42.8,30.15,SSW,204,0.0,0.0,97,0.00,,,0.00,Wunderground v.1.15,2013-05-07 10:50:00,
2013-05-07 06:55:00,43.9,43.1,30.15,SSW,203,0.0,0.0,97,0.00,,,0.00,Wunderground v.1.15,2013-05-07 10:55:00,
2013-05-07 07:00:00,44.1,43.3,30.15,SSW,203,0.0,0.0,97,0.00,,,0.00,Wunderground v.1.15,2013-05-07 11:00:00,
2013-05-07 07:05:00,44.3,43.5,30.15,SSW,204,0.0,0.0,97,0.00,,,0.00,Wunderground v.1.15,2013-05-07 11:05:00,
2013-05-07 07:15:00,44.9,44.1,30.15,SSW,204,0.0,0.0,97,0.00,,,0.00,Wunderground v.1.15,2013-05-07 11:15:00,
2013-05-07 07:20:00,45.1,44.6,30.15,SSW,204,0.0,0.0,98,0.00,,,0.00,Wunderground v.1.15,2013-05-07 11:20:00,
2013-05-07 07:25:00,45.4,44.6,30.15,SSW,204,0.0,0.0,97,0.00,,,0.00,Wunderground v.1.15,2013-05-07 11:25:00,
2013-05-07 07:30:00,45.7,45.2,30.15,SSW,203,0.0,0.0,98,0.00,,,0.00,Wunderground v.1.15,2013-05-07 11:30:00,
2013-05-07 07:35:00,46.2,45.7,30.15,SSW,204,0.0,0.0,98,0.00,,,0.00,Wunderground v.1.15,2013-05-07 11:35:00,
2013-05-07 07:40:00,46.9,46.4,30.15,SSW,204,0.0,0.0,98,0.00,,,0.00,Wunderground v.1.15,2013-05-07 11:40:00,
2013-05-07 07:50:00,48.1,47.6,30.15,SSW,204,0.0,0.0,98,0.00,,,0.00,Wunderground v.1.15,2013-05-07 11:50:00,
2013-05-07 08:00:00,49.2,48.7,30.15,SSW,203,0.0,0.0,98,0.00,,,0.00,Wunderground v.1.15,2013-05-07 12:00:00,
2013-05-07 08:05:00,50.0,49.2,30.15,SSW,204,0.0,0.0,97,0.00,,,0.00,Wunderground v.1.15,2013-05-07 12:05:00,
2013-05-07 08:15:00,51.9,50.2,30.15,SSW,203,0.0,0.0,94,0.00,,,0.00,Wunderground v.1.15,2013-05-07 12:15:00,
2013-05-07 08:25:00,53.6,50.4,30.15,SSW,204,0.0,1.0,89,0.00,,,0.00,Wunderground v.1.15,2013-05-07 12:25:00,
2013-05-07 08:35:00,55.1,50.0,30.15,SSW,203,0.0,0.0,83,0.00,,,0.00,Wunderground v.1.15,2013-05-07 12:35:00,
2013-05-07 08:40:00,55.7,50.3,30.14,SSW,204,0.0,0.0,82,0.00,,,0.00,Wunderground v.1.15,2013-05-07 12:40:00,
2013-05-07 08:45:00,56.4,51.0,30.14,SSW,204,0.0,0.0,82,0.00,,,0.00,Wunderground v.1.15,2013-05-07 12:45:00,
2013-05-07 08:50:00,57.1,50.6,30.14,SSW,198,0.0,0.0,79,0.00,,,0.00,Wunderground v.1.15,2013-05-07 12:50:00,
2013-05-07 08:55:00,57.7,50.9,30.15,SSW,198,0.0,0.0,78,0.00,,,0.00,Wunderground v.1.15,2013-05-07 12:55:00,
2013-05-07 09:00:00,58.4,50.9,30.14,SSW,195,0.0,0.0,76,0.00,,,0.00,Wunderground v.1.15,2013-05-07 13:00:00,
2013-05-07 09:05:00,59.0,50.7,30.14,SSW,195,0.0,0.0,74,0.00,,,0.00,Wunderground v.1.15,2013-05-07 13:05:00,
2013-05-07 09:15:00,61.1,52.4,30.14,SSW,195,0.0,1.0,73,0.00,,,0.00,Wunderground v.1.15,2013-05-07 13:15:00,
2013-05-07 09:20:00,61.9,52.4,30.14,SSW,195,0.0,1.0,71,0.00,,,0.00,Wunderground v.1.15,2013-05-07 13:20:00,
2013-05-07 09:25:00,62.4,51.3,30.14,SSW,195,0.0,1.0,67,0.00,,,0.00,Wunderground v.1.15,2013-05-07 13:25:00,
2013-05-07 09:30:00,63.1,52.4,30.14,SSW,195,0.0,0.0,68,0.00,,,0.00,Wunderground v.1.15,2013-05-07 13:30:00,
2013-05-07 09:40:00,64.3,51.4,30.14,SSW,195,1.0,1.0,63,0.00,,,0.00,Wunderground v.1.15,2013-05-07 13:40:00,
2013-05-07 09:45:00,64.7,51.4,30.14,SSW,195,1.0,1.0,62,0.00,,,0.00,Wunderground v.1.15,2013-05-07 13:45:00,
2013-05-07 09:50:00,65.4,51.1,30.13,SSW,200,1.0,1.0,60,0.00,,,0.00,Wunderground v.1.15,2013-05-07 13:50:00,
2013-05-07 09:55:00,66.4,52.5,30.13,SSW,200,1.0,1.0,61,0.00,,,0.00,Wunderground v.1.15,2013-05-07 13:55:00,
2013-05-07 10:00:00,67.3,52.9,30.13,SSW,203,0.0,1.0,60,0.00,,,0.00,Wunderground v.1.15,2013-05-07 14:00:00,
2013-05-07 10:05:00,67.6,50.9,30.13,South,187,1.0,1.0,55,0.00,,,0.00,Wunderground v.1.15,2013-05-07 14:05:00,
2013-05-07 10:15:00,68.5,51.2,30.13,SW,215,2.0,2.0,54,0.00,,,0.00,Wunderground v.1.15,2013-05-07 14:15:00,
2013-05-07 10:20:00,68.8,51.5,30.13,South,182,2.0,2.0,54,0.00,,,0.00,Wunderground v.1.15,2013-05-07 14:20:00,
2013-05-07 10:25:00,69.3,51.9,30.13,SSW,195,2.0,2.0,54,0.00,,,0.00,Wunderground v.1.15,2013-05-07 14:25:00,
2013-05-07 10:30:00,69.7,51.3,30.12,SSW,198,2.0,2.0,52,0.00,,,0.00,Wunderground v.1.15,2013-05-07 14:30:00,
2013-05-07 10:35:00,70.1,51.1,30.12,SSW,201,1.0,2.0,51,0.00,,,0.00,Wunderground v.1.15,2013-05-07 14:35:00,
2013-05-07 10:40:00,70.3,51.3,30.12,SSW,195,1.0,1.0,51,0.00,,,0.00,Wunderground v.1.15,2013-05-07 14:40:00,
2013-05-07 10:45:00,70.6,51.1,30.12,South,190,2.0,3.0,50,0.00,,,0.00,Wunderground v.1.15,2013-05-07 14:45:00,
2013-05-07 10:50:00,71.0,51.4,30.12,SSW,199,2.0,2.0,50,0.00,,,0.00,Wunderground v.1.15,2013-05-07 14:50:00,
2013-05-07 11:00:00,71.7,51.0,30.12,South,176,1.0,1.0,48,0.00,,,0.00,Wunderground v.1.15,2013-05-07 15:00:00,
2013-05-07 11:05:00,72.0,50.7,30.12,SSW,195,2.0,2.0,47,0.00,,,0.00,Wunderground v.1.15,2013-05-07 15:05:00,
2013-05-07 11:15:00,72.6,51.2,30.12,South,186,1.0,3.0,47,0.00,,,0.00,Wunderground v.1.15,2013-05-07 15:15:00,
2013-05-07 11:20:00,72.9,52.1,30.12,SE,145,1.0,1.0,48,0.00,,,0.00,Wunderground v.1.15,2013-05-07 15:20:00,
2013-05-07 11:30:00,73.5,52.0,30.11,SE,140,1.0,1.0,47,0.00,,,0.00,Wunderground v.1.15,2013-05-07 15:30:00,
2013-05-07 11:35:00,73.7,53.9,30.11,NE,44,1.0,1.0,50,0.00,,,0.00,Wunderground v.1.15,2013-05-07 15:35:00,
2013-05-07 11:40:00,73.8,51.1,30.11,South,169,1.0,2.0,45,0.00,,,0.00,Wunderground v.1.15,2013-05-07 15:40:00,
2013-05-07 11:45:00,74.2,52.7,30.11,SE,146,1.0,3.0,47,0.00,,,0.00,Wunderground v.1.15,2013-05-07 15:45:00,
2013-05-07 11:50:00,74.4,52.9,30.11,NNE,21,2.0,2.0,47,0.00,,,0.00,Wunderground v.1.15,2013-05-07 15:50:00,
2013-05-07 11:55:00,74.4,52.9,30.11,SSW,195,1.0,3.0,47,0.00,,,0.00,Wunderground v.1.15,2013-05-07 15:55:00,
2013-05-07 12:00:00,74.8,50.2,30.11,SSE,151,2.0,2.0,42,0.00,,,0.00,Wunderground v.1.15,2013-05-07 16:00:00,
2013-05-07 12:10:00,75.4,50.7,30.10,SSE,161,2.0,2.0,42,0.00,,,0.00,Wunderground v.1.15,2013-05-07 16:10:00,
2013-05-07 12:15:00,75.5,50.8,30.10,SSW,193,1.0,2.0,42,0.00,,,0.00,Wunderground v.1.15,2013-05-07 16:15:00,
2013-05-07 12:20:00,75.6,49.6,30.10,South,169,1.0,3.0,40,0.00,,,0.00,Wunderground v.1.15,2013-05-07 16:20:00,
2013-05-07 12:25:00,75.8,46.9,30.10,SSW,192,2.0,3.0,36,0.00,,,0.00,Wunderground v.1.15,2013-05-07 16:25:00,
2013-05-07 12:30:00,76.1,47.2,30.10,SSW,192,1.0,1.0,36,0.00,,,0.00,Wunderground v.1.15,2013-05-07 16:30:00,
2013-05-07 12:35:00,76.7,49.9,30.10,South,182,0.0,1.0,39,0.00,,,0.00,Wunderground v.1.15,2013-05-07 16:35:00,
2013-05-07 12:45:00,77.0,48.0,30.09,SW,215,2.0,2.0,36,0.00,,,0.00,Wunderground v.1.15,2013-05-07 16:45:00,
2013-05-07 12:50:00,77.0,45.7,30.09,SSW,206,2.0,2.0,33,0.00,,,0.00,Wunderground v.1.15,2013-05-07 16:50:00,
2013-05-07 12:55:00,77.5,46.9,30.09,SSE,159,2.0,2.0,34,0.00,,,0.00,Wunderground v.1.15,2013-05-07 16:55:00,
2013-05-07 13:00:00,77.7,45.5,30.09,NE,48,1.0,1.0,32,0.00,,,0.00,Wunderground v.1.15,2013-05-07 17:00:00,
2013-05-07 13:05:00,77.8,46.4,30.09,East,93,1.0,1.0,33,0.00,,,0.00,Wunderground v.1.15,2013-05-07 17:05:00,
2013-05-07 13:15:00,77.3,46.7,30.09,SSW,198,4.0,5.0,34,0.00,,,0.00,Wunderground v.1.15,2013-05-07 17:15:00,
2013-05-07 13:20:00,77.5,46.1,30.08,WSW,246,4.0,4.0,33,0.00,,,0.00,Wunderground v.1.15,2013-05-07 17:20:00,
2013-05-07 13:25:00,77.9,45.7,30.08,SSW,196,3.0,5.0,32,0.00,,,0.00,Wunderground v.1.15,2013-05-07 17:25:00,
2013-05-07 13:30:00,77.7,47.9,30.08,SSW,198,3.0,3.0,35,0.00,,,0.00,Wunderground v.1.15,2013-05-07 17:30:00,
2013-05-07 13:35:00,78.2,49.8,30.08,SSW,195,2.0,6.0,37,0.00,,,0.00,Wunderground v.1.15,2013-05-07 17:35:00,
2013-05-07 13:40:00,77.8,48.7,30.08,South,178,3.0,3.0,36,0.00,,,0.00,Wunderground v.1.15,2013-05-07 17:40:00,
2013-05-07 13:45:00,77.9,47.3,30.08,SSW,204,3.0,3.0,34,0.00,,,0.00,Wunderground v.1.15,2013-05-07 17:45:00,
2013-05-07 13:55:00,77.8,46.4,30.08,SSW,199,3.0,4.0,33,0.00,,,0.00,Wunderground v.1.15,2013-05-07 17:55:00,
2013-05-07 14:00:00,78.0,48.1,30.08,SSW,205,3.0,5.0,35,0.00,,,0.00,Wunderground v.1.15,2013-05-07 18:00:00,
2013-05-07 14:05:00,78.2,45.9,30.08,South,189,3.0,7.0,32,0.00,,,0.00,Wunderground v.1.15,2013-05-07 18:05:00,
2013-05-07 14:15:00,78.6,45.4,30.07,South,191,4.0,4.0,31,0.00,,,0.00,Wunderground v.1.15,2013-05-07 18:15:00,
2013-05-07 14:20:00,78.7,44.7,30.08,SSE,163,3.0,3.0,30,0.00,,,0.00,Wunderground v.1.15,2013-05-07 18:20:00,
2013-05-07 14:30:00,78.7,44.7,30.07,South,171,3.0,3.0,30,0.00,,,0.00,Wunderground v.1.15,2013-05-07 18:30:00,
2013-05-07 14:35:00,78.7,44.7,30.07,NE,35,3.0,3.0,30,0.00,,,0.00,Wunderground v.1.15,2013-05-07 18:35:00,
2013-05-07 14:40:00,79.0,44.0,30.07,SE,141,3.0,6.0,29,0.00,,,0.00,Wunderground v.1.15,2013-05-07 18:40:00,
2013-05-07 14:45:00,78.9,43.9,30.06,SE,127,4.0,6.0,29,0.00,,,0.00,Wunderground v.1.15,2013-05-07 18:45:00,
2013-05-07 14:50:00,79.0,44.0,30.06,SW,221,5.0,5.0,29,0.00,,,0.00,Wunderground v.1.15,2013-05-07 18:50:00,
2013-05-07 14:55:00,79.0,44.0,30.06,SSE,155,5.0,5.0,29,0.00,,,0.00,Wunderground v.1.15,2013-05-07 18:55:00,
2013-05-07 15:00:00,78.8,43.8,30.06,SSW,203,4.0,8.0,29,0.00,,,0.00,Wunderground v.1.15,2013-05-07 19:00:00,
2013-05-07 15:10:00,79.0,42.2,30.06,SW,227,4.0,4.0,27,0.00,,,0.00,Wunderground v.1.15,2013-05-07 19:10:00,
2013-05-07 15:15:00,79.1,43.2,30.05,SE,134,3.0,4.0,28,0.00,,,0.00,Wunderground v.1.15,2013-05-07 19:15:00,
2013-05-07 15:20:00,79.2,43.3,30.05,NNE,19,2.0,4.0,28,0.00,,,0.00,Wunderground v.1.15,2013-05-07 19:20:00,
2013-05-07 15:25:00,79.1,44.1,30.05,SSW,207,2.0,4.0,29,0.00,,,0.00,Wunderground v.1.15,2013-05-07 19:25:00,
2013-05-07 15:30:00,78.9,44.8,30.05,SSW,213,4.0,5.0,30,0.00,,,0.00,Wunderground v.1.15,2013-05-07 19:30:00,
2013-05-07 15:35:00,79.1,43.2,30.05,SSE,153,5.0,5.0,28,0.00,,,0.00,Wunderground v.1.15,2013-05-07 19:35:00,
2013-05-07 15:45:00,79.2,42.3,30.05,SSE,155,2.0,11.0,27,0.00,,,0.00,Wunderground v.1.15,2013-05-07 19:45:00,
2013-05-07 15:50:00,79.0,42.2,30.05,NNE,31,3.0,3.0,27,0.00,,,0.00,Wunderground v.1.15,2013-05-07 19:50:00,
2013-05-07 15:55:00,79.4,41.5,30.04,SSE,150,2.0,4.0,26,0.00,,,0.00,Wunderground v.1.15,2013-05-07 19:55:00,
2013-05-07 16:00:00,79.3,41.4,30.04,SE,143,1.0,1.0,26,0.00,,,0.00,Wunderground v.1.15,2013-05-07 20:00:00,
2013-05-07 16:05:00,79.3,42.4,30.04,SE,143,2.0,3.0,27,0.00,,,0.00,Wunderground v.1.15,2013-05-07 20:05:00,
2013-05-07 16:15:00,79.7,43.7,30.04,SSW,199,2.0,2.0,28,0.00,,,0.00,Wunderground v.1.15,2013-05-07 20:15:00,
2013-05-07 16:20:00,79.9,43.9,30.04,South,183,2.0,4.0,28,0.00,,,0.00,Wunderground v.1.15,2013-05-07 20:20:00,
2013-05-07 16:25:00,79.6,39.6,30.04,SSW,205,3.0,4.0,24,0.00,,,0.00,Wunderground v.1.15,2013-05-07 20:25:00,
2013-05-07 16:30:00,79.5,40.6,30.04,SW,221,4.0,4.0,25,0.00,,,0.00,Wunderground v.1.15,2013-05-07 20:30:00,
2013-05-07 16:35:00,79.3,41.4,30.04,SSE,148,4.0,4.0,26,0.00,,,0.00,Wunderground v.1.15,2013-05-07 20:35:00,
2013-05-07 16:40:00,79.4,42.5,30.04,SSW,194,3.0,4.0,27,0.00,,,0.00,Wunderground v.1.15,2013-05-07 20:40:00,
2013-05-07 16:45:00,79.4,41.5,30.04,South,172,4.0,4.0,26,0.00,,,0.00,Wunderground v.1.15,2013-05-07 20:45:00,
2013-05-07 16:50:00,79.2,40.3,30.03,SE,141,4.0,4.0,25,0.00,,,0.00,Wunderground v.1.15,2013-05-07 20:50:00,
2013-05-07 17:00:00,79.4,39.4,30.04,South,182,3.0,3.0,24,0.00,,,0.00,Wunderground v.1.15,2013-05-07 21:00:00,
2013-05-07 17:05:00,79.2,39.3,30.03,SSE,157,4.0,8.0,24,0.00,,,0.00,Wunderground v.1.15,2013-05-07 21:05:00,
2013-05-07 17:15:00,79.3,41.4,30.03,SSW,200,3.0,5.0,26,0.00,,,0.00,Wunderground v.1.15,2013-05-07 21:15:00,
2013-05-07 17:20:00,79.5,39.5,30.03,SSE,164,1.0,3.0,24,0.00,,,0.00,Wunderground v.1.15,2013-05-07 21:20:00,
2013-05-07 17:25:00,79.1,39.2,30.03,SSE,165,3.0,3.0,24,0.00,,,0.00,Wunderground v.1.15,2013-05-07 21:25:00,
2013-05-07 17:35:00,78.7,38.9,30.03,SSE,159,3.0,9.0,24,0.00,,,0.00,Wunderground v.1.15,2013-05-07 21:35:00,
2013-05-07 17:40:00,78.5,37.6,30.03,SSE,165,3.0,5.0,23,0.00,,,0.00,Wunderground v.1.15,2013-05-07 21:40:00,
2013-05-07 17:45:00,78.4,40.7,30.03,SSW,192,4.0,5.0,26,0.00,,,0.00,Wunderground v.1.15,2013-05-07 21:45:00,
2013-05-07 17:50:00,78.4,38.6,30.03,SSW,194,3.0,4.0,24,0.00,,,0.00,Wunderground v.1.15,2013-05-07 21:50:00,
2013-05-07 17:55:00,78.4,37.5,30.03,SSE,156,3.0,6.0,23,0.00,,,0.00,Wunderground v.1.15,2013-05-07 21:55:00,
2013-05-07 18:00:00,78.3,39.6,30.03,SSW,192,3.0,4.0,25,0.00,,,0.00,Wunderground v.1.15,2013-05-07 22:00:00,
2013-05-07 18:05:00,78.2,39.5,30.03,South,186,3.0,4.0,25,0.00,,,0.00,Wunderground v.1.15,2013-05-07 22:05:00,
2013-05-07 18:15:00,78.2,38.4,30.03,SSE,159,2.0,2.0,24,0.00,,,0.00,Wunderground v.1.15,2013-05-07 22:15:00,
2013-05-07 18:20:00,78.1,39.4,30.04,SSE,162,1.0,1.0,25,0.00,,,0.00,Wunderground v.1.15,2013-05-07 22:20:00,
2013-05-07 18:25:00,77.9,38.2,30.04,South,184,2.0,2.0,24,0.00,,,0.00,Wunderground v.1.15,2013-05-07 22:25:00,
2013-05-07 18:30:00,77.7,39.1,30.04,South,184,2.0,3.0,25,0.00,,,0.00,Wunderground v.1.15,2013-05-07 22:30:00,
2013-05-07 18:35:00,77.4,37.8,30.04,South,177,2.0,3.0,24,0.00,,,0.00,Wunderground v.1.15,2013-05-07 22:35:00,
2013-05-07 18:40:00,77.2,38.6,30.04,SSE,155,2.0,2.0,25,0.00,,,0.00,Wunderground v.1.15,2013-05-07 22:40:00,
2013-05-07 18:50:00,76.3,36.8,30.04,South,187,2.0,2.0,24,0.00,,,0.00,Wunderground v.1.15,2013-05-07 22:50:00,
2013-05-07 18:55:00,75.9,38.5,30.04,South,169,2.0,2.0,26,0.00,,,0.00,Wunderground v.1.15,2013-05-07 22:55:00,
2013-05-07 19:00:00,75.6,39.2,30.04,SSE,167,1.0,1.0,27,0.00,,,0.00,Wunderground v.1.15,2013-05-07 23:00:00,
2013-05-07 19:05:00,75.2,38.9,30.04,SE,146,1.0,1.0,27,0.00,,,0.00,Wunderground v.1.15,2013-05-07 23:05:00,
2013-05-07 19:15:00,74.6,39.3,30.05,SSE,165,0.0,0.0,28,0.00,,,0.00,Wunderground v.1.15,2013-05-07 23:15:00,
2013-05-07 19:25:00,73.8,43.7,30.05,SSE,164,0.0,0.0,34,0.00,,,0.00,Wunderground v.1.15,2013-05-07 23:25:00,
2013-05-07 19:30:00,72.9,43.6,30.05,SSE,164,0.0,0.0,35,0.00,,,0.00,Wunderground v.1.15,2013-05-07 23:30:00,
2013-05-07 19:35:00,71.5,43.1,30.05,SSE,165,0.0,0.0,36,0.00,,,0.00,Wunderground v.1.15,2013-05-07 23:35:00,
2013-05-07 19:40:00,70.2,42.7,30.05,SSE,165,0.0,0.0,37,0.00,,,0.00,Wunderground v.1.15,2013-05-07 23:40:00,
2013-05-07 19:45:00,68.9,42.9,30.06,SSE,165,0.0,0.0,39,0.00,,,0.00,Wunderground v.1.15,2013-05-07 23:45:00,
2013-05-07 19:50:00,67.7,43.1,30.06,SSE,165,0.0,0.0,41,0.00,,,0.00,Wunderground v.1.15,2013-05-07 23:50:00,
2013-05-07 19:55:00,66.7,44.7,30.06,SSE,164,0.0,0.0,45,0.00,,,0.00,Wunderground v.1.15,2013-05-07 23:55:00,
2013-05-07 20:05:00,65.0,45.4,30.06,SSE,165,0.0,0.0,49,0.00,,,0.00,Wunderground v.1.15,2013-05-08 00:05:00,
2013-05-07 20:15:00,63.6,45.1,30.07,SSE,164,0.0,0.0,51,0.00,,,0.00,Wunderground v.1.15,2013-05-08 00:15:00,
2013-05-07 20:20:00,63.1,45.7,30.07,SSE,165,0.0,0.0,53,0.00,,,0.00,Wunderground v.1.15,2013-05-08 00:20:00,
2013-05-07 20:25:00,62.5,45.1,30.08,SSE,164,0.0,0.0,53,0.00,,,0.00,Wunderground v.1.15,2013-05-08 00:25:00,
2013-05-07 20:30:00,62.0,45.2,30.08,SSE,165,0.0,0.0,54,0.00,,,0.00,Wunderground v.1.15,2013-05-08 00:30:00,
2013-05-07 20:40:00,61.1,46.2,30.09,SSE,164,0.0,0.0,58,0.00,,,0.00,Wunderground v.1.15,2013-05-08 00:40:00,
2013-05-07 20:50:00,60.5,46.5,30.09,SSE,165,0.0,0.0,60,0.00,,,0.00,Wunderground v.1.15,2013-05-08 00:50:00,
2013-05-07 20:55:00,60.3,45.5,30.09,SSE,164,0.0,0.0,58,0.00,,,0.00,Wunderground v.1.15,2013-05-08 00:55:00,
2013-05-07 21:00:00,60.0,45.6,30.09,SSE,165,0.0,0.0,59,0.00,,,0.00,Wunderground v.1.15,2013-05-08 01:00:00,
2013-05-07 21:05:00,59.8,46.3,30.09,SSE,165,0.0,0.0,61,0.00,,,0.00,Wunderground v.1.15,2013-05-08 01:05:00,
2013-05-07 21:15:00,59.3,47.5,30.10,SSE,164,0.0,0.0,65,0.00,,,0.00,Wunderground v.1.15,2013-05-08 01:15:00,
2013-05-07 21:20:00,59.1,47.7,30.10,SSE,165,0.0,0.0,66,0.00,,,0.00,Wunderground v.1.15,2013-05-08 01:20:00,
2013-05-07 21:30:00,59.0,46.8,30.10,SSE,165,0.0,0.0,64,0.00,,,0.00,Wunderground v.1.15,2013-05-08 01:30:00,
2013-05-07 21:35:00,58.7,47.0,30.11,SSE,165,0.0,0.0,65,0.00,,,0.00,Wunderground v.1.15,2013-05-08 01:35:00,
2013-05-07 21:40:00,58.6,47.3,30.11,SSE,165,0.0,0.0,66,0.00,,,0.00,Wunderground v.1.15,2013-05-08 01:40:00,
2013-05-07 21:45:00,58.3,47.4,30.11,SSE,164,0.0,0.0,67,0.00,,,0.00,Wunderground v.1.15,2013-05-08 01:45:00,
2013-05-07 21:50:00,58.3,47.8,30.11,SSE,165,0.0,0.0,68,0.00,,,0.00,Wunderground v.1.15,2013-05-08 01:50:00,
2013-05-07 21:55:00,58.2,48.1,30.11,SSE,165,0.0,0.0,69,0.00,,,0.00,Wunderground v.1.15,2013-05-08 01:55:00,
2013-05-07 22:05:00,57.8,49.2,30.11,SSE,165,0.0,0.0,73,0.00,,,0.00,Wunderground v.1.15,2013-05-08 02:05:00,
2013-05-07 22:15:00,57.5,49.3,30.11,SSE,165,0.0,0.0,74,0.00,,,0.00,Wunderground v.1.15,2013-05-08 02:15:00,
2013-05-07 22:20:00,57.3,49.4,30.11,SSE,164,0.0,0.0,75,0.00,,,0.00,Wunderground v.1.15,2013-05-08 02:20:00,
2013-05-07 22:25:00,57.1,49.6,30.11,SSE,165,0.0,0.0,76,0.00,,,0.00,Wunderground v.1.15,2013-05-08 02:25:00,
2013-05-07 22:30:00,57.0,50.2,30.11,SSE,164,0.0,0.0,78,0.00,,,0.00,Wunderground v.1.15,2013-05-08 02:30:00,
2013-05-07 22:40:00,56.7,50.3,30.12,SSE,165,0.0,0.0,79,0.00,,,0.00,Wunderground v.1.15,2013-05-08 02:40:00,
2013-05-07 22:45:00,56.5,50.4,30.12,SSE,165,0.0,0.0,80,0.00,,,0.00,Wunderground v.1.15,2013-05-08 02:45:00,
2013-05-07 22:50:00,56.2,50.4,30.12,SSE,165,0.0,0.0,81,0.00,,,0.00,Wunderground v.1.15,2013-05-08 02:50:00,
2013-05-07 22:55:00,55.9,50.2,30.12,SSE,165,0.0,0.0,81,0.00,,,0.00,Wunderground v.1.15,2013-05-08 02:55:00,
2013-05-07 23:00:00,55.7,50.3,30.12,SSE,165,0.0,0.0,82,0.00,,,0.00,Wunderground v.1.15,2013-05-08 03:00:00,
2013-05-07 23:05:00,55.5,50.4,30.12,SSE,165,0.0,0.0,83,0.00,,,0.00,Wunderground v.1.15,2013-05-08 03:05:00,
2013-05-07 23:15:00,55.1,50.7,30.12,SSE,165,0.0,0.0,85,0.00,,,0.00,Wunderground v.1.15,2013-05-08 03:15:00,
2013-05-07 23:20:00,55.0,50.9,30.12,SSE,165,0.0,0.0,86,0.00,,,0.00,Wunderground v.1.15,2013-05-08 03:20:00,
2013-05-07 23:25:00,54.9,51.1,30.12,SSE,165,0.0,0.0,87,0.00,,,0.00,Wunderground v.1.15,2013-05-08 03:25:00,
2013-05-07 23:30:00,54.8,51.0,30.12,SSE,165,0.0,0.0,87,0.00,,,0.00,Wunderground v.1.15,2013-05-08 03:30:00,
2013-05-07 23:35:00,54.6,50.8,30.12,SSE,165,0.0,0.0,87,0.00,,,0.00,Wunderground v.1.15,2013-05-08 03:35:00,
2013-05-07 23:40:00,54.5,51.0,30.12,SSE,164,0.0,0.0,88,0.00,,,0.00,Wunderground v.1.15,2013-05-08 03:40:00,
2013-05-07 23:45:00,54.3,50.8,30.12,SSE,165,0.0,0.0,88,0.00,,,0.00,Wunderground v.1.15,2013-05-08 03:45:00,
2013-05-07 23:55:00,54.0,50.2,30.13,SSE,165,0.0,0.0,87,0.00,,,0.00,Wunderground v.1.15,2013-05-08 03:55:00,